sensor_id;sensor_type;location;lat;lon;timestamp;pressure;altitude;pressure_sealevel;temperature;humidity
25084;BME280;13075;55.682;37.564;2023-06-14T00:00:14;99879.94;;;23.67;39.16
25084;BME280;13075;55.682;37.564;2023-06-14T00:02:40;99884.31;;;23.63;39.16
25084;BME280;13075;55.682;37.564;2023-06-14T00:05:05;99884.63;;;23.51;39.67
25084;BME280;13075;55.682;37.564;2023-06-14T00:07:35;99878.28;;;23.66;39.53
25084;BME280;13075;55.682;37.564;2023-06-14T00:10:01;99885.41;;;23.67;39.64
25084;BME280;13075;55.682;37.564;2023-06-14T00:12:26;99887.88;;;23.33;40.27
25084;BME280;13075;55.682;37.564;2023-06-14T00:14:52;99887.09;;;23.37;40.44
25084;BME280;13075;55.682;37.564;2023-06-14T00:17:17;99894.72;;;23.35;40.47
25084;BME280;13075;55.682;37.564;2023-06-14T00:19:43;99886.25;;;23.42;40.36
25084;BME280;13075;55.682;37.564;2023-06-14T00:22:09;99882.97;;;23.30;40.54
25084;BME280;13075;55.682;37.564;2023-06-14T00:24:34;99888.97;;;23.32;40.47
25084;BME280;13075;55.682;37.564;2023-06-14T00:27:00;99893.91;;;23.40;40.71
25084;BME280;13075;55.682;37.564;2023-06-14T00:29:27;99882.97;;;23.25;40.81
25084;BME280;13075;55.682;37.564;2023-06-14T00:31:53;99886.25;;;23.22;41.06
25084;BME280;13075;55.682;37.564;2023-06-14T00:34:18;99882.44;;;23.23;41.06
25084;BME280;13075;55.682;37.564;2023-06-14T00:36:44;99879.97;;;23.21;41.44
25084;BME280;13075;55.682;37.564;2023-06-14T00:39:12;99885.72;;;23.30;41.27
25084;BME280;13075;55.682;37.564;2023-06-14T00:41:37;99885.41;;;23.26;41.20
25084;BME280;13075;55.682;37.564;2023-06-14T00:44:04;99883.22;;;23.23;41.59
25084;BME280;13075;55.682;37.564;2023-06-14T00:46:30;99880.50;;;23.13;41.88
25084;BME280;13075;55.682;37.564;2023-06-14T00:48:56;99879.69;;;23.13;41.97
25084;BME280;13075;55.682;37.564;2023-06-14T00:51:21;99883.78;;;23.20;41.90
25084;BME280;13075;55.682;37.564;2023-06-14T00:53:47;99887.34;;;23.26;41.69
25084;BME280;13075;55.682;37.564;2023-06-14T00:56:13;99883.53;;;23.12;42.04
25084;BME280;13075;55.682;37.564;2023-06-14T00:58:41;99884.06;;;23.19;42.16
25084;BME280;13075;55.682;37.564;2023-06-14T01:01:06;99881.06;;;23.10;42.28
25084;BME280;13075;55.682;37.564;2023-06-14T01:03:33;99877.78;;;23.08;42.41
25084;BME280;13075;55.682;37.564;2023-06-14T01:06:01;99883.53;;;23.12;42.42
25084;BME280;13075;55.682;37.564;2023-06-14T01:11:01;99878.63;;;22.93;42.82
25084;BME280;13075;55.682;37.564;2023-06-14T01:15:52;99885.97;;;22.98;42.97
25084;BME280;13075;55.682;37.564;2023-06-14T01:18:20;99881.34;;;22.78;43.54
25084;BME280;13075;55.682;37.564;2023-06-14T01:20:46;99881.06;;;22.70;43.63
25084;BME280;13075;55.682;37.564;2023-06-14T01:23:18;99882.69;;;22.71;43.92
25084;BME280;13075;55.682;37.564;2023-06-14T01:25:44;99882.72;;;22.76;43.86
25084;BME280;13075;55.682;37.564;2023-06-14T01:28:11;99883.25;;;22.68;43.75
25084;BME280;13075;55.682;37.564;2023-06-14T01:30:39;99875.88;;;22.78;44.02
25084;BME280;13075;55.682;37.564;2023-06-14T01:33:13;99881.59;;;22.77;43.86
25084;BME280;13075;55.682;37.564;2023-06-14T01:35:43;99887.59;;;22.79;44.03
25084;BME280;13075;55.682;37.564;2023-06-14T01:38:09;99893.63;;;22.76;44.61
25084;BME280;13075;55.682;37.564;2023-06-14T01:40:35;99893.88;;;22.84;44.31
25084;BME280;13075;55.682;37.564;2023-06-14T01:43:01;99886.81;;;22.83;44.32
25084;BME280;13075;55.682;37.564;2023-06-14T01:45:28;99895.19;;;22.62;45.04
25084;BME280;13075;55.682;37.564;2023-06-14T01:47:56;99894.44;;;22.81;44.55
25084;BME280;13075;55.682;37.564;2023-06-14T01:50:21;99894.72;;;22.90;44.61
25084;BME280;13075;55.682;37.564;2023-06-14T01:52:47;99893.88;;;22.84;44.86
25084;BME280;13075;55.682;37.564;2023-06-14T01:55:12;99896.06;;;22.67;45.34
25084;BME280;13075;55.682;37.564;2023-06-14T01:57:38;99893.09;;;22.89;45.02
25084;BME280;13075;55.682;37.564;2023-06-14T02:00:04;99893.34;;;22.92;45.00
25084;BME280;13075;55.682;37.564;2023-06-14T02:02:38;99890.91;;;22.86;45.27
25084;BME280;13075;55.682;37.564;2023-06-14T02:05:04;99888.72;;;22.83;45.86
25084;BME280;13075;55.682;37.564;2023-06-14T02:07:30;99897.44;;;23.00;45.29
25084;BME280;13075;55.682;37.564;2023-06-14T02:09:55;99890.06;;;23.06;45.14
25084;BME280;13075;55.682;37.564;2023-06-14T02:12:22;99889.25;;;23.00;45.16
25084;BME280;13075;55.682;37.564;2023-06-14T02:14:47;99884.34;;;23.17;45.24
25084;BME280;13075;55.682;37.564;2023-06-14T02:17:14;99885.97;;;23.18;45.39
25084;BME280;13075;55.682;37.564;2023-06-14T02:19:40;99880.25;;;23.25;45.21
25084;BME280;13075;55.682;37.564;2023-06-14T02:22:06;99887.31;;;23.31;45.12
25084;BME280;13075;55.682;37.564;2023-06-14T02:24:33;99885.19;;;23.38;44.73
25084;BME280;13075;55.682;37.564;2023-06-14T02:26:59;99884.63;;;23.46;44.73
25084;BME280;13075;55.682;37.564;2023-06-14T02:29:25;99881.88;;;23.41;44.76
25084;BME280;13075;55.682;37.564;2023-06-14T02:31:50;99880.53;;;23.08;44.77
25084;BME280;13075;55.682;37.564;2023-06-14T02:34:19;99884.06;;;23.49;44.64
25084;BME280;13075;55.682;37.564;2023-06-14T02:36:47;99894.94;;;23.59;44.66
25084;BME280;13075;55.682;37.564;2023-06-14T02:39:13;99890.06;;;23.56;44.63
25084;BME280;13075;55.682;37.564;2023-06-14T02:41:38;99890.31;;;23.65;44.49
25084;BME280;13075;55.682;37.564;2023-06-14T02:44:04;99888.91;;;23.77;44.25
25084;BME280;13075;55.682;37.564;2023-06-14T02:46:29;99902.03;;;23.70;44.40
25084;BME280;13075;55.682;37.564;2023-06-14T02:48:55;99895.16;;;23.83;44.45
25084;BME280;13075;55.682;37.564;2023-06-14T02:51:20;99908.28;;;23.86;43.97
25084;BME280;13075;55.682;37.564;2023-06-14T02:53:46;99898.72;;;23.83;44.26
25084;BME280;13075;55.682;37.564;2023-06-14T02:56:11;99896.00;;;23.78;44.57
25084;BME280;13075;55.682;37.564;2023-06-14T02:58:37;99905.78;;;23.99;44.14
25084;BME280;13075;55.682;37.564;2023-06-14T03:01:05;99907.75;;;23.79;44.33
25084;BME280;13075;55.682;37.564;2023-06-14T03:03:32;99916.97;;;24.03;44.13
25084;BME280;13075;55.682;37.564;2023-06-14T03:05:58;99910.94;;;24.06;44.04
25084;BME280;13075;55.682;37.564;2023-06-14T03:08:27;99906.22;;;24.32;43.88
25084;BME280;13075;55.682;37.564;2023-06-14T03:10:56;99902.44;;;24.23;43.61
25084;BME280;13075;55.682;37.564;2023-06-14T03:13:23;99908.91;;;24.37;43.34
25084;BME280;13075;55.682;37.564;2023-06-14T03:15:50;99902.47;;;24.66;42.75
25084;BME280;13075;55.682;37.564;2023-06-14T03:18:17;99904.00;;;25.21;42.05
25084;BME280;13075;55.682;37.564;2023-06-14T03:20:44;99902.75;;;25.37;40.41
25084;BME280;13075;55.682;37.564;2023-06-14T03:23:11;99902.22;;;25.35;41.30
25084;BME280;13075;55.682;37.564;2023-06-14T03:25:38;99900.75;;;25.77;40.82
25084;BME280;13075;55.682;37.564;2023-06-14T03:28:06;99901.75;;;25.86;40.55
25084;BME280;13075;55.682;37.564;2023-06-14T03:30:31;99903.75;;;26.65;39.30
25084;BME280;13075;55.682;37.564;2023-06-14T03:32:59;99896.88;;;26.86;37.56
25084;BME280;13075;55.682;37.564;2023-06-14T03:35:29;99890.31;;;27.01;37.48
25084;BME280;13075;55.682;37.564;2023-06-14T03:37:54;99892.53;;;27.31;37.36
25084;BME280;13075;55.682;37.564;2023-06-14T03:40:20;99894.25;;;30.44;33.63
25084;BME280;13075;55.682;37.564;2023-06-14T03:42:50;99888.75;;;30.87;32.50
25084;BME280;13075;55.682;37.564;2023-06-14T03:45:17;99890.66;;;28.68;35.08
25084;BME280;13075;55.682;37.564;2023-06-14T03:47:42;99897.91;;;28.77;35.15
25084;BME280;13075;55.682;37.564;2023-06-14T03:50:08;99886.25;;;29.47;34.44
25084;BME280;13075;55.682;37.564;2023-06-14T03:52:34;99892.41;;;30.31;31.72
25084;BME280;13075;55.682;37.564;2023-06-14T03:54:59;99899.41;;;30.29;31.72
25084;BME280;13075;55.682;37.564;2023-06-14T03:57:26;99900.44;;;28.96;32.74
25084;BME280;13075;55.682;37.564;2023-06-14T03:59:53;99893.78;;;29.11;33.17
25084;BME280;13075;55.682;37.564;2023-06-14T04:02:19;99906.03;;;28.33;34.01
25084;BME280;13075;55.682;37.564;2023-06-14T04:04:44;99904.78;;;27.71;35.24
25084;BME280;13075;55.682;37.564;2023-06-14T04:07:14;99898.63;;;27.14;35.93
25084;BME280;13075;55.682;37.564;2023-06-14T04:09:40;99901.78;;;26.89;36.46
25084;BME280;13075;55.682;37.564;2023-06-14T04:12:06;99889.66;;;26.90;36.38
25084;BME280;13075;55.682;37.564;2023-06-14T04:14:34;99892.88;;;26.79;36.33
25084;BME280;13075;55.682;37.564;2023-06-14T04:17:00;99897.91;;;26.90;36.91
25084;BME280;13075;55.682;37.564;2023-06-14T04:19:26;99897.81;;;26.77;37.13
25084;BME280;13075;55.682;37.564;2023-06-14T04:21:52;99899.59;;;26.49;36.63
25084;BME280;13075;55.682;37.564;2023-06-14T04:24:17;99905.91;;;26.68;36.64
25084;BME280;13075;55.682;37.564;2023-06-14T04:26:46;99897.00;;;26.76;36.02
25084;BME280;13075;55.682;37.564;2023-06-14T04:29:14;99900.22;;;26.83;35.67
25084;BME280;13075;55.682;37.564;2023-06-14T04:31:43;99899.94;;;26.61;35.84
25084;BME280;13075;55.682;37.564;2023-06-14T04:34:10;99889.94;;;26.51;35.96
25084;BME280;13075;55.682;37.564;2023-06-14T04:36:43;99896.66;;;26.83;35.61
25084;BME280;13075;55.682;37.564;2023-06-14T04:39:15;99894.94;;;26.68;35.61
25084;BME280;13075;55.682;37.564;2023-06-14T04:41:43;99885.78;;;26.73;35.54
25084;BME280;13075;55.682;37.564;2023-06-14T04:44:10;99886.63;;;26.73;35.66
25084;BME280;13075;55.682;37.564;2023-06-14T04:46:39;99891.88;;;26.70;35.92
25084;BME280;13075;55.682;37.564;2023-06-14T04:49:15;99889.81;;;26.99;35.39
25084;BME280;13075;55.682;37.564;2023-06-14T04:51:44;99894.06;;;26.91;35.74
25084;BME280;13075;55.682;37.564;2023-06-14T04:54:11;99885.59;;;26.88;35.60
25084;BME280;13075;55.682;37.564;2023-06-14T04:56:40;99889.50;;;27.00;35.69
25084;BME280;13075;55.682;37.564;2023-06-14T04:59:06;99888.03;;;26.71;35.72
25084;BME280;13075;55.682;37.564;2023-06-14T05:01:31;99885.22;;;26.94;35.62
25084;BME280;13075;55.682;37.564;2023-06-14T05:03:58;99892.03;;;26.97;36.31
25084;BME280;13075;55.682;37.564;2023-06-14T05:06:24;99888.53;;;27.10;35.61
25084;BME280;13075;55.682;37.564;2023-06-14T05:08:49;99891.66;;;27.36;35.79
25084;BME280;13075;55.682;37.564;2023-06-14T05:11:15;99883.69;;;27.34;34.29
25084;BME280;13075;55.682;37.564;2023-06-14T05:13:43;99887.41;;;27.11;33.97
25084;BME280;13075;55.682;37.564;2023-06-14T05:16:12;99895.00;;;27.33;33.48
25084;BME280;13075;55.682;37.564;2023-06-14T05:18:38;99896.78;;;27.42;32.91
25084;BME280;13075;55.682;37.564;2023-06-14T05:21:05;99894.34;;;26.71;33.91
25084;BME280;13075;55.682;37.564;2023-06-14T05:23:31;99882.78;;;27.39;33.51
25084;BME280;13075;55.682;37.564;2023-06-14T05:25:56;99882.88;;;27.20;34.12
25084;BME280;13075;55.682;37.564;2023-06-14T05:28:22;99890.53;;;27.69;33.93
25084;BME280;13075;55.682;37.564;2023-06-14T05:30:47;99881.97;;;27.70;33.34
25084;BME280;13075;55.682;37.564;2023-06-14T05:33:13;99900.38;;;27.70;33.00
25084;BME280;13075;55.682;37.564;2023-06-14T05:35:38;99893.28;;;27.69;32.45
25084;BME280;13075;55.682;37.564;2023-06-14T05:38:04;99886.34;;;27.99;31.62
25084;BME280;13075;55.682;37.564;2023-06-14T05:40:29;99893.47;;;27.86;32.06
25084;BME280;13075;55.682;37.564;2023-06-14T05:42:55;99892.53;;;27.50;32.91
25084;BME280;13075;55.682;37.564;2023-06-14T05:45:20;99891.66;;;27.81;32.50
25084;BME280;13075;55.682;37.564;2023-06-14T05:47:45;99896.72;;;27.88;32.32
25084;BME280;13075;55.682;37.564;2023-06-14T05:50:11;99894.19;;;27.92;32.25
25084;BME280;13075;55.682;37.564;2023-06-14T05:52:36;99893.19;;;28.28;31.80
25084;BME280;13075;55.682;37.564;2023-06-14T05:55:02;99887.47;;;28.38;31.10
25084;BME280;13075;55.682;37.564;2023-06-14T05:57:28;99897.81;;;28.55;30.74
25084;BME280;13075;55.682;37.564;2023-06-14T05:59:54;99902.00;;;28.66;30.70
25084;BME280;13075;55.682;37.564;2023-06-14T06:02:19;99892.28;;;28.55;30.91
25084;BME280;13075;55.682;37.564;2023-06-14T06:04:45;99896.63;;;28.34;30.33
25084;BME280;13075;55.682;37.564;2023-06-14T06:07:10;99893.63;;;28.71;29.83
25084;BME280;13075;55.682;37.564;2023-06-14T06:09:36;99911.63;;;28.41;30.17
25084;BME280;13075;55.682;37.564;2023-06-14T06:12:02;99900.06;;;28.89;29.28
25084;BME280;13075;55.682;37.564;2023-06-14T06:14:27;99893.47;;;28.13;30.27
25084;BME280;13075;55.682;37.564;2023-06-14T06:16:54;99895.97;;;29.00;29.54
25084;BME280;13075;55.682;37.564;2023-06-14T06:19:19;99882.72;;;29.55;29.55
25084;BME280;13075;55.682;37.564;2023-06-14T06:21:45;99880.66;;;29.69;28.57
25084;BME280;13075;55.682;37.564;2023-06-14T06:24:10;99890.88;;;29.38;28.79
25084;BME280;13075;55.682;37.564;2023-06-14T06:26:36;99890.19;;;29.32;28.99
25084;BME280;13075;55.682;37.564;2023-06-14T06:29:02;99886.09;;;29.52;28.39
25084;BME280;13075;55.682;37.564;2023-06-14T06:31:27;99886.66;;;28.96;27.72
25084;BME280;13075;55.682;37.564;2023-06-14T06:33:53;99885.00;;;29.61;27.69
25084;BME280;13075;55.682;37.564;2023-06-14T06:36:19;99885.03;;;30.01;27.26
25084;BME280;13075;55.682;37.564;2023-06-14T06:38:47;99887.56;;;29.89;27.32
25084;BME280;13075;55.682;37.564;2023-06-14T06:41:12;99882.94;;;29.67;27.32
25084;BME280;13075;55.682;37.564;2023-06-14T06:43:37;99883.72;;;30.63;26.66
25084;BME280;13075;55.682;37.564;2023-06-14T06:46:03;99885.66;;;33.28;24.43
25084;BME280;13075;55.682;37.564;2023-06-14T06:48:28;99888.16;;;32.67;24.44
25084;BME280;13075;55.682;37.564;2023-06-14T06:50:54;99882.41;;;34.67;22.67
25084;BME280;13075;55.682;37.564;2023-06-14T06:53:20;99871.22;;;40.62;18.64
25084;BME280;13075;55.682;37.564;2023-06-14T06:55:45;99879.16;;;43.42;16.39
25084;BME280;13075;55.682;37.564;2023-06-14T06:58:11;99869.91;;;46.75;14.65
25084;BME280;13075;55.682;37.564;2023-06-14T07:00:37;99866.81;;;49.71;13.04
25084;BME280;13075;55.682;37.564;2023-06-14T07:03:02;99862.31;;;52.41;11.50
25084;BME280;13075;55.682;37.564;2023-06-14T07:05:29;99866.03;;;51.35;11.66
25084;BME280;13075;55.682;37.564;2023-06-14T07:07:54;99851.66;;;53.29;10.82
25084;BME280;13075;55.682;37.564;2023-06-14T07:10:20;99853.63;;;53.47;10.96
25084;BME280;13075;55.682;37.564;2023-06-14T07:12:46;99851.63;;;53.94;10.28
25084;BME280;13075;55.682;37.564;2023-06-14T07:15:11;99851.91;;;54.20;10.11
25084;BME280;13075;55.682;37.564;2023-06-14T07:17:37;99848.91;;;52.93;10.84
25084;BME280;13075;55.682;37.564;2023-06-14T07:20:02;99841.31;;;52.80;11.31
25084;BME280;13075;55.682;37.564;2023-06-14T07:22:37;99843.91;;;54.24;10.72
25084;BME280;13075;55.682;37.564;2023-06-14T07:25:03;99849.81;;;55.38;9.82
25084;BME280;13075;55.682;37.564;2023-06-14T07:27:28;99849.69;;;55.61;9.78
25084;BME280;13075;55.682;37.564;2023-06-14T07:29:53;99849.25;;;55.34;9.54
25084;BME280;13075;55.682;37.564;2023-06-14T07:32:19;99837.72;;;54.99;9.90
25084;BME280;13075;55.682;37.564;2023-06-14T07:34:45;99844.22;;;56.44;9.21
25084;BME280;13075;55.682;37.564;2023-06-14T07:37:10;99841.22;;;55.38;9.69
25084;BME280;13075;55.682;37.564;2023-06-14T07:39:36;99840.09;;;55.15;9.32
25084;BME280;13075;55.682;37.564;2023-06-14T07:42:01;99837.84;;;56.60;9.38
25084;BME280;13075;55.682;37.564;2023-06-14T07:44:29;99841.53;;;53.99;10.10
25084;BME280;13075;55.682;37.564;2023-06-14T07:46:55;99837.34;;;54.91;9.93
25084;BME280;13075;55.682;37.564;2023-06-14T07:49:23;99838.53;;;54.99;9.42
25084;BME280;13075;55.682;37.564;2023-06-14T07:51:48;99823.38;;;55.83;9.29
25084;BME280;13075;55.682;37.564;2023-06-14T07:54:15;99838.13;;;54.63;10.02
25084;BME280;13075;55.682;37.564;2023-06-14T07:56:41;99820.78;;;56.05;9.29
25084;BME280;13075;55.682;37.564;2023-06-14T07:59:06;99822.97;;;55.21;9.49
25084;BME280;13075;55.682;37.564;2023-06-14T08:01:32;99828.69;;;55.06;9.79
25084;BME280;13075;55.682;37.564;2023-06-14T08:03:58;99822.25;;;56.01;9.00
25084;BME280;13075;55.682;37.564;2023-06-14T08:06:23;99824.31;;;56.66;8.88
25084;BME280;13075;55.682;37.564;2023-06-14T08:08:49;99833.41;;;57.64;8.39
25084;BME280;13075;55.682;37.564;2023-06-14T08:11:14;99832.63;;;56.90;9.33
25084;BME280;13075;55.682;37.564;2023-06-14T08:13:40;99834.44;;;56.62;9.02
25084;BME280;13075;55.682;37.564;2023-06-14T08:16:05;99816.22;;;57.81;8.63
25084;BME280;13075;55.682;37.564;2023-06-14T08:18:31;99820.53;;;52.53;10.14
25084;BME280;13075;55.682;37.564;2023-06-14T08:20:56;99826.84;;;57.21;9.02
25084;BME280;13075;55.682;37.564;2023-06-14T08:23:23;99826.59;;;58.15;8.78
25084;BME280;13075;55.682;37.564;2023-06-14T08:25:48;99831.53;;;56.10;9.01
25084;BME280;13075;55.682;37.564;2023-06-14T08:28:13;99824.59;;;56.43;8.96
25084;BME280;13075;55.682;37.564;2023-06-14T08:30:39;99835.94;;;55.01;9.43
25084;BME280;13075;55.682;37.564;2023-06-14T08:33:04;99823.00;;;52.87;9.92
25084;BME280;13075;55.682;37.564;2023-06-14T08:35:30;99828.47;;;47.69;12.50
25084;BME280;13075;55.682;37.564;2023-06-14T08:37:55;99825.38;;;45.16;13.73
25084;BME280;13075;55.682;37.564;2023-06-14T08:40:21;99814.13;;;41.94;15.46
25084;BME280;13075;55.682;37.564;2023-06-14T08:42:48;99818.97;;;40.40;17.13
25084;BME280;13075;55.682;37.564;2023-06-14T08:45:15;99819.81;;;39.05;17.93
25084;BME280;13075;55.682;37.564;2023-06-14T08:47:40;99819.47;;;37.69;18.91
25084;BME280;13075;55.682;37.564;2023-06-14T08:50:06;99811.56;;;37.71;18.85
25084;BME280;13075;55.682;37.564;2023-06-14T08:52:34;99815.19;;;36.68;19.85
25084;BME280;13075;55.682;37.564;2023-06-14T08:55:06;99819.94;;;34.92;20.74
25084;BME280;13075;55.682;37.564;2023-06-14T08:57:31;99812.63;;;35.43;20.72
25084;BME280;13075;55.682;37.564;2023-06-14T09:00:00;99819.31;;;36.40;20.04
25084;BME280;13075;55.682;37.564;2023-06-14T09:02:30;99812.25;;;36.80;19.39
25084;BME280;13075;55.682;37.564;2023-06-14T09:04:57;99816.09;;;36.38;19.63
25084;BME280;13075;55.682;37.564;2023-06-14T09:07:24;99801.84;;;35.73;20.06
25084;BME280;13075;55.682;37.564;2023-06-14T09:10:04;99810.53;;;36.18;19.96
25084;BME280;13075;55.682;37.564;2023-06-14T09:12:31;99811.97;;;35.50;20.49
25084;BME280;13075;55.682;37.564;2023-06-14T09:14:56;99804.53;;;35.38;20.63
25084;BME280;13075;55.682;37.564;2023-06-14T09:17:22;99798.72;;;34.72;21.67
25084;BME280;13075;55.682;37.564;2023-06-14T09:19:48;99805.25;;;34.64;21.64
25084;BME280;13075;55.682;37.564;2023-06-14T09:22:13;99803.16;;;33.97;21.29
25084;BME280;13075;55.682;37.564;2023-06-14T09:24:41;99795.91;;;34.57;21.12
25084;BME280;13075;55.682;37.564;2023-06-14T09:27:06;99794.69;;;33.21;21.61
25084;BME280;13075;55.682;37.564;2023-06-14T09:29:33;99787.81;;;32.74;22.45
25084;BME280;13075;55.682;37.564;2023-06-14T09:31:58;99796.66;;;33.33;22.14
25084;BME280;13075;55.682;37.564;2023-06-14T09:34:24;99807.72;;;33.77;22.05
25084;BME280;13075;55.682;37.564;2023-06-14T09:36:49;99808.16;;;34.04;22.00
25084;BME280;13075;55.682;37.564;2023-06-14T09:39:19;99805.69;;;33.54;21.92
25084;BME280;13075;55.682;37.564;2023-06-14T09:41:44;99795.78;;;33.89;21.66
25084;BME280;13075;55.682;37.564;2023-06-14T09:44:10;99794.38;;;34.19;21.99
25084;BME280;13075;55.682;37.564;2023-06-14T09:46:37;99797.41;;;33.66;21.95
25084;BME280;13075;55.682;37.564;2023-06-14T09:49:03;99803.53;;;33.96;21.51
25084;BME280;13075;55.682;37.564;2023-06-14T09:51:29;99791.69;;;34.35;21.44
25084;BME280;13075;55.682;37.564;2023-06-14T09:53:59;99790.97;;;35.84;20.36
25084;BME280;13075;55.682;37.564;2023-06-14T09:56:27;99784.16;;;35.65;20.18
25084;BME280;13075;55.682;37.564;2023-06-14T09:58:54;99783.00;;;35.35;20.56
25084;BME280;13075;55.682;37.564;2023-06-14T10:01:20;99779.09;;;34.65;20.80
25084;BME280;13075;55.682;37.564;2023-06-14T10:03:46;99774.91;;;34.71;20.97
25084;BME280;13075;55.682;37.564;2023-06-14T10:06:14;99774.84;;;33.79;21.17
25084;BME280;13075;55.682;37.564;2023-06-14T10:08:40;99774.03;;;34.55;20.83
25084;BME280;13075;55.682;37.564;2023-06-14T10:11:06;99768.56;;;33.95;21.11
25084;BME280;13075;55.682;37.564;2023-06-14T10:13:32;99774.59;;;34.09;21.10
25084;BME280;13075;55.682;37.564;2023-06-14T10:16:06;99769.75;;;33.81;21.06
25084;BME280;13075;55.682;37.564;2023-06-14T10:21:37;99766.63;;;33.35;21.62
25084;BME280;13075;55.682;37.564;2023-06-14T10:24:08;99773.44;;;32.92;21.77
25084;BME280;13075;55.682;37.564;2023-06-14T10:26:39;99763.59;;;33.28;21.89
25084;BME280;13075;55.682;37.564;2023-06-14T10:29:15;99757.03;;;33.68;21.67
25084;BME280;13075;55.682;37.564;2023-06-14T10:31:44;99767.91;;;33.49;22.33
25084;BME280;13075;55.682;37.564;2023-06-14T10:34:10;99757.06;;;33.56;22.01
25084;BME280;13075;55.682;37.564;2023-06-14T10:36:37;99753.91;;;33.46;22.09
25084;BME280;13075;55.682;37.564;2023-06-14T10:39:04;99754.28;;;32.99;22.65
25084;BME280;13075;55.682;37.564;2023-06-14T10:41:31;99742.34;;;33.32;22.26
25084;BME280;13075;55.682;37.564;2023-06-14T10:46:49;99739.88;;;34.03;21.95
25084;BME280;13075;55.682;37.564;2023-06-14T10:49:18;99745.94;;;33.56;23.20
25084;BME280;13075;55.682;37.564;2023-06-14T10:51:50;99740.47;;;34.36;21.46
25084;BME280;13075;55.682;37.564;2023-06-14T10:54:15;99744.91;;;33.61;21.99
25084;BME280;13075;55.682;37.564;2023-06-14T10:56:52;99744.00;;;33.57;22.05
25084;BME280;13075;55.682;37.564;2023-06-14T10:59:18;99738.63;;;33.28;22.10
25084;BME280;13075;55.682;37.564;2023-06-14T11:04:10;99735.53;;;32.96;22.05
25084;BME280;13075;55.682;37.564;2023-06-14T11:06:43;99735.41;;;33.50;21.68
25084;BME280;13075;55.682;37.564;2023-06-14T11:11:55;99727.22;;;32.84;22.65
25084;BME280;13075;55.682;37.564;2023-06-14T11:14:21;99718.06;;;33.29;22.04
25084;BME280;13075;55.682;37.564;2023-06-14T11:16:49;99732.50;;;33.22;22.21
25084;BME280;13075;55.682;37.564;2023-06-14T11:19:15;99728.69;;;32.49;22.92
25084;BME280;13075;55.682;37.564;2023-06-14T11:21:42;99725.66;;;33.19;22.12
25084;BME280;13075;55.682;37.564;2023-06-14T11:24:10;99725.44;;;33.24;21.85
25084;BME280;13075;55.682;37.564;2023-06-14T11:26:37;99721.75;;;33.20;21.90
25084;BME280;13075;55.682;37.564;2023-06-14T11:29:03;99726.28;;;33.49;22.01
25084;BME280;13075;55.682;37.564;2023-06-14T11:31:28;99714.84;;;32.70;22.53
25084;BME280;13075;55.682;37.564;2023-06-14T11:33:54;99730.13;;;33.00;22.65
25084;BME280;13075;55.682;37.564;2023-06-14T11:36:20;99721.88;;;33.36;22.35
25084;BME280;13075;55.682;37.564;2023-06-14T11:38:46;99722.13;;;32.86;22.55
25084;BME280;13075;55.682;37.564;2023-06-14T11:41:11;99723.66;;;32.96;22.73
25084;BME280;13075;55.682;37.564;2023-06-14T11:43:37;99711.44;;;33.09;22.42
25084;BME280;13075;55.682;37.564;2023-06-14T11:46:02;99709.31;;;33.63;21.93
25084;BME280;13075;55.682;37.564;2023-06-14T11:48:41;99709.25;;;33.51;22.06
25084;BME280;13075;55.682;37.564;2023-06-14T11:51:06;99718.88;;;33.29;22.31
25084;BME280;13075;55.682;37.564;2023-06-14T11:53:32;99708.22;;;32.62;22.50
25084;BME280;13075;55.682;37.564;2023-06-14T11:55:58;99712.63;;;33.08;22.05
25084;BME280;13075;55.682;37.564;2023-06-14T11:58:23;99705.69;;;33.26;22.36
25084;BME280;13075;55.682;37.564;2023-06-14T12:00:50;99699.91;;;33.67;21.99
25084;BME280;13075;55.682;37.564;2023-06-14T12:03:15;99692.16;;;33.12;22.24
25084;BME280;13075;55.682;37.564;2023-06-14T12:05:41;99698.28;;;33.30;22.17
25084;BME280;13075;55.682;37.564;2023-06-14T12:08:06;99695.81;;;32.80;22.62
25084;BME280;13075;55.682;37.564;2023-06-14T12:10:39;99686.16;;;33.10;22.51
25084;BME280;13075;55.682;37.564;2023-06-14T12:13:06;99683.25;;;33.43;22.73
25084;BME280;13075;55.682;37.564;2023-06-14T12:15:31;99679.56;;;33.27;22.08
25084;BME280;13075;55.682;37.564;2023-06-14T12:18:00;99683.75;;;33.21;22.45
25084;BME280;13075;55.682;37.564;2023-06-14T12:20:29;99684.06;;;33.07;22.78
25084;BME280;13075;55.682;37.564;2023-06-14T12:22:55;99682.41;;;32.49;23.08
25084;BME280;13075;55.682;37.564;2023-06-14T12:27:57;99672.78;;;32.67;22.65
25084;BME280;13075;55.682;37.564;2023-06-14T12:30:22;99666.53;;;32.58;22.58
25084;BME280;13075;55.682;37.564;2023-06-14T12:32:48;99668.28;;;32.10;23.35
25084;BME280;13075;55.682;37.564;2023-06-14T12:35:14;99671.56;;;32.24;23.08
25084;BME280;13075;55.682;37.564;2023-06-14T12:37:40;99669.75;;;32.28;23.24
25084;BME280;13075;55.682;37.564;2023-06-14T12:40:06;99669.34;;;32.50;23.07
25084;BME280;13075;55.682;37.564;2023-06-14T12:42:32;99666.09;;;32.69;23.07
25084;BME280;13075;55.682;37.564;2023-06-14T12:44:59;99665.59;;;32.54;23.09
25084;BME280;13075;55.682;37.564;2023-06-14T12:47:24;99663.66;;;32.34;23.20
25084;BME280;13075;55.682;37.564;2023-06-14T12:49:50;99665.88;;;32.41;23.31
25084;BME280;13075;55.682;37.564;2023-06-14T12:52:15;99669.53;;;32.53;23.25
25084;BME280;13075;55.682;37.564;2023-06-14T12:54:41;99660.75;;;32.63;22.68
25084;BME280;13075;55.682;37.564;2023-06-14T12:57:06;99659.19;;;32.99;22.57
25084;BME280;13075;55.682;37.564;2023-06-14T12:59:32;99659.09;;;32.95;23.12
25084;BME280;13075;55.682;37.564;2023-06-14T13:02:11;99660.69;;;32.19;22.98
25084;BME280;13075;55.682;37.564;2023-06-14T13:04:37;99668.63;;;32.29;23.02